Time;durP1;ratioP1;P1;durP2;ratioP2;P2;SDS_P1;SDS_P2;PMS_P1;PMS_P2;Temp;Humidity;BMP_temperature;BMP_pressure;BME280_temperature;BME280_humidity;BME280_pressure;Samples;Min_cycle;Max_cycle;Signal;HPM_P1;HPM_P2
2022/07/31 00:01:25;;;;;;;;;;;18.50;99.90;;;;;;5035165;28;20279;-74
2022/07/31 00:03:51;;;;;;;;;;;18.60;99.90;;;;;;5024469;28;20328;-72
2022/07/31 00:06:17;;;;;;;;;;;18.60;99.90;;;;;;5048640;28;19935;-73
2022/07/31 00:08:42;;;;;;;;;;;18.60;99.90;;;;;;5039146;28;19917;-73
2022/07/31 00:11:10;;;;;;;;;;;18.70;99.90;;;;;;5053398;28;19909;-74
2022/07/31 00:13:36;;;;;;;;;;;18.70;99.90;;;;;;5036887;28;19917;-73
2022/07/31 00:16:02;;;;;;;;;;;18.70;99.90;;;;;;4940734;28;2886882;-72
2022/07/31 00:18:28;;;;;;;;;;;18.70;99.90;;;;;;5028936;28;19924;-72
2022/07/31 00:20:53;;;;;;;;;;;18.70;99.90;;;;;;5053845;28;19909;-73
2022/07/31 00:23:19;;;;;;;;;;;18.70;99.90;;;;;;5039386;28;19996;-73
2022/07/31 00:25:44;;;;;;;;;;;18.70;99.90;;;;;;5035952;28;19917;-73
2022/07/31 00:28:10;;;;;;;;;;;18.70;99.90;;;;;;5031608;28;20223;-73
2022/07/31 00:30:35;;;;;;;;;;;18.70;99.90;;;;;;5047520;28;20268;-73
2022/07/31 00:33:01;;;;;;;;;;;18.70;99.90;;;;;;5033387;28;19913;-73
2022/07/31 00:35:26;;;;;;;;;;;18.70;99.90;;;;;;5031628;28;19921;-74
2022/07/31 00:37:52;;;;;;;;;;;18.70;99.90;;;;;;5038002;28;19917;-73
2022/07/31 00:40:18;;;;;;;;;;;18.60;99.90;;;;;;5044850;28;20687;-74
2022/07/31 00:42:43;;;;;;;;;;;18.60;99.90;;;;;;5038899;28;19999;-74
2022/07/31 00:45:09;;;;;;;;;;;18.60;99.90;;;;;;5029163;28;19913;-74
2022/07/31 00:47:34;;;;;;;;;;;18.50;99.90;;;;;;5030294;28;19913;-75
2022/07/31 00:50:00;;;;;;;;;;;18.50;99.90;;;;;;5030321;28;19937;-75
2022/07/31 00:52:25;;;;;;;;;;;18.50;99.90;;;;;;5041536;28;19995;-74
2022/07/31 00:54:51;;;;;;;;;;;18.40;99.90;;;;;;5050133;28;19920;-74
2022/07/31 00:57:17;;;;;;;;;;;18.50;99.90;;;;;;5029928;28;19913;-74
2022/07/31 00:59:42;;;;;;;;;;;18.50;99.90;;;;;;5034147;28;19917;-74
2022/07/31 01:02:08;;;;;;;;;;;18.40;99.90;;;;;;5043405;28;20050;-74
2022/07/31 01:04:34;;;;;;;;;;;18.40;99.90;;;;;;5038987;28;19916;-74
2022/07/31 01:06:59;;;;;;;;;;;18.40;99.90;;;;;;5040967;28;19913;-74
2022/07/31 01:09:25;;;;;;;;;;;18.40;99.90;;;;;;5040789;28;20316;-74
2022/07/31 01:11:51;;;;;;;;;;;18.40;99.90;;;;;;5030428;28;19916;-74
2022/07/31 01:14:18;;;;;;;;;;;18.40;99.90;;;;;;5038742;28;19921;-73
2022/07/31 01:16:47;;;;;;;;;;;18.40;99.90;;;;;;5034087;28;19925;-74
2022/07/31 01:19:23;;;;;;;;;;;18.40;99.90;;;;;;5037166;28;19932;-74
2022/07/31 01:22:04;;;;;;;;;;;18.40;99.90;;;;;;5035519;28;19913;-73
2022/07/31 01:24:49;;;;;;;;;;;18.40;99.90;;;;;;5045066;28;19912;-73
2022/07/31 01:27:37;;;;;;;;;;;18.40;99.90;;;;;;5037927;28;20084;-74
2022/07/31 01:30:03;;;;;;;;;;;18.50;99.90;;;;;;5000732;28;19917;-73
2022/07/31 01:32:34;;;;;;;;;;;18.40;99.90;;;;;;5039941;28;19916;-74
2022/07/31 01:35:05;;;;;;;;;;;18.40;99.90;;;;;;5054686;28;20065;-74
2022/07/31 01:37:41;;;;;;;;;;;18.40;99.90;;;;;;5041652;28;19990;-76
2022/07/31 01:40:15;;;;;;;;;;;18.30;99.90;;;;;;5035511;28;20379;-74
2022/07/31 01:42:43;;;;;;;;;;;18.30;99.90;;;;;;5053744;28;19909;-74
2022/07/31 01:45:11;;;;;;;;;;;18.20;99.90;;;;;;5053355;28;19909;-74
2022/07/31 01:47:38;;;;;;;;;;;18.20;99.90;;;;;;5036209;28;19951;-74
2022/07/31 01:50:04;;;;;;;;;;;18.10;99.90;;;;;;5033365;28;19934;-74
2022/07/31 01:52:30;;;;;;;;;;;18.10;99.90;;;;;;5035257;28;20588;-73
2022/07/31 01:54:57;;;;;;;;;;;18.10;99.90;;;;;;5035086;28;19917;-74
2022/07/31 01:57:24;;;;;;;;;;;18.10;99.90;;;;;;5039645;28;19917;-73
2022/07/31 01:59:52;;;;;;;;;;;18.10;99.90;;;;;;5034346;28;19917;-76
2022/07/31 02:02:19;;;;;;;;;;;18.10;99.90;;;;;;5033017;28;19992;-73
2022/07/31 02:04:46;;;;;;;;;;;18.20;99.90;;;;;;5036127;28;19913;-74
2022/07/31 02:07:13;;;;;;;;;;;18.20;99.90;;;;;;5047971;28;19910;-73
2022/07/31 02:09:40;;;;;;;;;;;18.20;99.90;;;;;;5039963;28;19932;-73
2022/07/31 02:12:08;;;;;;;;;;;18.20;99.90;;;;;;5036885;28;19913;-72
2022/07/31 02:14:34;;;;;;;;;;;18.30;99.90;;;;;;5036017;28;20411;-72
2022/07/31 02:17:00;;;;;;;;;;;18.40;99.90;;;;;;5055486;28;19978;-72
2022/07/31 02:19:27;;;;;;;;;;;18.40;99.90;;;;;;5044002;28;19917;-72
2022/07/31 02:21:52;;;;;;;;;;;18.40;99.90;;;;;;5047390;28;19936;-73
2022/07/31 02:24:18;;;;;;;;;;;18.40;99.90;;;;;;5031161;28;20193;-74
2022/07/31 02:26:45;;;;;;;;;;;18.30;99.90;;;;;;5038438;28;19909;-73
2022/07/31 02:29:11;;;;;;;;;;;18.20;99.90;;;;;;5044870;28;20298;-73
2022/07/31 02:31:38;;;;;;;;;;;18.20;99.90;;;;;;5034228;28;19919;-73
2022/07/31 02:34:03;;;;;;;;;;;18.20;99.90;;;;;;5034617;28;19967;-73
2022/07/31 02:36:30;;;;;;;;;;;18.20;99.90;;;;;;5033917;28;20289;-73
2022/07/31 02:38:56;;;;;;;;;;;18.30;99.90;;;;;;5045540;28;19917;-74
2022/07/31 02:41:23;;;;;;;;;;;18.30;99.90;;;;;;5033045;28;20205;-73
2022/07/31 02:43:49;;;;;;;;;;;18.30;99.90;;;;;;5037936;28;19928;-74
2022/07/31 02:46:15;;;;;;;;;;;18.40;99.90;;;;;;5033759;28;19913;-72
2022/07/31 02:48:40;;;;;;;;;;;18.40;99.90;;;;;;5037889;28;20211;-73
2022/07/31 02:51:07;;;;;;;;;;;18.40;99.90;;;;;;5037359;28;19913;-73
2022/07/31 02:53:33;;;;;;;;;;;18.40;99.90;;;;;;5041543;28;19924;-73
2022/07/31 02:55:59;;;;;;;;;;;18.50;99.90;;;;;;5033187;28;19924;-73
2022/07/31 02:58:26;;;;;;;;;;;18.50;99.90;;;;;;5035236;28;20004;-73
2022/07/31 03:01:01;;;;;;;;;;;18.40;99.90;;;;;;5031527;28;19917;-73
2022/07/31 03:03:27;;;;;;;;;;;18.40;99.90;;;;;;5041165;28;19917;-73
2022/07/31 03:05:52;;;;;;;;;;;18.50;99.90;;;;;;5048179;28;19917;-73
2022/07/31 03:08:18;;;;;;;;;;;18.60;99.90;;;;;;5036932;28;19917;-73
2022/07/31 03:10:43;;;;;;;;;;;18.50;99.90;;;;;;5037757;28;19996;-73
2022/07/31 03:13:10;;;;;;;;;;;18.40;99.90;;;;;;5036865;28;19921;-73
2022/07/31 03:15:37;;;;;;;;;;;18.40;99.90;;;;;;5034352;28;19921;-75
2022/07/31 03:18:04;;;;;;;;;;;18.40;99.90;;;;;;5037592;28;20323;-73
2022/07/31 03:20:29;;;;;;;;;;;18.30;99.90;;;;;;5045181;28;19913;-73
2022/07/31 03:22:55;;;;;;;;;;;18.30;99.90;;;;;;5033999;28;19999;-73
2022/07/31 03:25:20;;;;;;;;;;;18.30;99.90;;;;;;5044323;28;20040;-73
2022/07/31 03:27:47;;;;;;;;;;;18.30;99.90;;;;;;5038217;28;19991;-73
2022/07/31 03:30:17;;;;;;;;;;;18.30;99.90;;;;;;5042368;28;19920;-73
2022/07/31 03:32:43;;;;;;;;;;;18.40;99.90;;;;;;5036302;28;19929;-73
2022/07/31 03:35:09;;;;;;;;;;;18.40;99.90;;;;;;5043392;28;19917;-73
2022/07/31 03:37:34;;;;;;;;;;;18.40;99.90;;;;;;5040842;28;19963;-73
2022/07/31 03:40:00;;;;;;;;;;;18.50;99.90;;;;;;5047845;28;19913;-73
2022/07/31 03:42:26;;;;;;;;;;;18.50;99.90;;;;;;5033074;28;19913;-73
2022/07/31 03:44:52;;;;;;;;;;;18.50;99.90;;;;;;5047917;28;19919;-72
2022/07/31 03:47:18;;;;;;;;;;;18.50;99.90;;;;;;5042480;28;19993;-72
2022/07/31 03:49:44;;;;;;;;;;;18.50;99.90;;;;;;5049379;28;19955;-73
2022/07/31 03:52:10;;;;;;;;;;;18.60;99.90;;;;;;5037933;28;20006;-72
2022/07/31 03:54:35;;;;;;;;;;;18.50;99.90;;;;;;5044142;28;19920;-73
2022/07/31 03:57:01;;;;;;;;;;;18.50;99.90;;;;;;5041707;28;20193;-72
2022/07/31 03:59:27;;;;;;;;;;;18.60;99.90;;;;;;5044259;28;19925;-74
2022/07/31 04:01:52;;;;;;;;;;;18.60;99.90;;;;;;5046925;28;19917;-73
2022/07/31 04:04:18;;;;;;;;;;;18.50;99.90;;;;;;5048994;28;19908;-75
2022/07/31 04:06:43;;;;;;;;;;;18.50;99.90;;;;;;5048845;28;19912;-74
2022/07/31 04:09:09;;;;;;;;;;;18.50;99.90;;;;;;5041320;28;20232;-75
2022/07/31 04:11:34;;;;;;;;;;;18.40;99.90;;;;;;5039104;28;19921;-73
2022/07/31 04:14:00;;;;;;;;;;;18.50;99.90;;;;;;5037269;28;19940;-77
2022/07/31 04:16:26;;;;;;;;;;;18.50;99.90;;;;;;5044881;28;19928;-76
2022/07/31 04:18:51;;;;;;;;;;;18.60;99.90;;;;;;5043919;28;20308;-75
2022/07/31 04:21:17;;;;;;;;;;;18.60;99.90;;;;;;5045953;28;19924;-74
2022/07/31 04:23:42;;;;;;;;;;;18.60;99.90;;;;;;5044161;28;19923;-76
2022/07/31 04:26:08;;;;;;;;;;;18.60;99.90;;;;;;5043432;28;19956;-75
2022/07/31 04:28:33;;;;;;;;;;;18.60;99.90;;;;;;5044018;28;19912;-74
2022/07/31 04:30:59;;;;;;;;;;;18.60;99.90;;;;;;5042658;28;19995;-76
2022/07/31 04:33:25;;;;;;;;;;;18.60;99.90;;;;;;5043902;28;19913;-77
2022/07/31 04:35:51;;;;;;;;;;;18.60;99.90;;;;;;5036135;28;20232;-74
2022/07/31 04:38:16;;;;;;;;;;;18.60;99.90;;;;;;5036925;28;19921;-73
2022/07/31 04:40:42;;;;;;;;;;;18.60;99.90;;;;;;5042525;28;19983;-74
2022/07/31 04:43:07;;;;;;;;;;;18.60;99.90;;;;;;5033010;28;19909;-75
2022/07/31 04:45:33;;;;;;;;;;;18.60;99.90;;;;;;5028406;28;20008;-74
2022/07/31 04:47:59;;;;;;;;;;;18.60;99.90;;;;;;5030368;28;19917;-73
2022/07/31 04:50:24;;;;;;;;;;;18.70;99.90;;;;;;5050580;28;19920;-75
2022/07/31 04:52:50;;;;;;;;;;;18.70;99.90;;;;;;5041360;28;19921;-75
2022/07/31 04:55:15;;;;;;;;;;;18.70;99.90;;;;;;5041060;28;19921;-74
2022/07/31 04:57:41;;;;;;;;;;;18.70;99.90;;;;;;5035847;28;20060;-74
2022/07/31 05:00:08;;;;;;;;;;;18.70;99.90;;;;;;5037386;28;20316;-74
2022/07/31 05:02:33;;;;;;;;;;;18.70;99.90;;;;;;5040312;28;20304;-75
2022/07/31 05:04:59;;;;;;;;;;;18.70;99.90;;;;;;5038497;28;19913;-75
2022/07/31 05:07:25;;;;;;;;;;;18.80;99.90;;;;;;5035117;28;19918;-77
2022/07/31 05:09:50;;;;;;;;;;;18.80;99.90;;;;;;5039448;28;19956;-75
2022/07/31 05:12:16;;;;;;;;;;;18.80;99.90;;;;;;5037771;28;19917;-78
2022/07/31 05:14:41;;;;;;;;;;;18.90;99.90;;;;;;5020985;28;19921;-74
2022/07/31 05:17:07;;;;;;;;;;;18.80;99.90;;;;;;5036996;28;19925;-75
2022/07/31 05:19:33;;;;;;;;;;;18.80;99.90;;;;;;5037580;28;19917;-74
2022/07/31 05:21:58;;;;;;;;;;;18.90;99.90;;;;;;5039393;28;19966;-75
2022/07/31 05:24:24;;;;;;;;;;;18.90;99.90;;;;;;5042554;28;19936;-74
2022/07/31 05:26:50;;;;;;;;;;;18.90;99.90;;;;;;5038308;28;20311;-74
2022/07/31 05:29:15;;;;;;;;;;;18.90;99.90;;;;;;5035014;28;19970;-74
2022/07/31 05:31:41;;;;;;;;;;;18.90;99.90;;;;;;5041561;28;19909;-76
2022/07/31 05:34:06;;;;;;;;;;;18.90;99.90;;;;;;5047428;28;19917;-73
2022/07/31 05:36:32;;;;;;;;;;;18.90;99.90;;;;;;5042265;28;19929;-74
2022/07/31 05:38:58;;;;;;;;;;;19.00;99.90;;;;;;5042532;28;20000;-74
2022/07/31 05:41:23;;;;;;;;;;;18.90;99.90;;;;;;5041972;28;20312;-75
2022/07/31 05:43:49;;;;;;;;;;;18.90;99.90;;;;;;5036692;28;19913;-73
2022/07/31 05:46:16;;;;;;;;;;;18.90;99.90;;;;;;5034551;28;19970;-75
2022/07/31 05:48:42;;;;;;;;;;;18.90;99.90;;;;;;5038279;28;20251;-74
2022/07/31 05:51:09;;;;;;;;;;;19.00;99.90;;;;;;5046707;28;19913;-75
2022/07/31 05:53:35;;;;;;;;;;;19.00;99.90;;;;;;5041540;28;19920;-77
2022/07/31 05:56:00;;;;;;;;;;;19.10;99.90;;;;;;5045401;28;19920;-75
2022/07/31 05:58:26;;;;;;;;;;;19.10;99.90;;;;;;5042663;28;20259;-75
2022/07/31 06:00:51;;;;;;;;;;;19.10;99.90;;;;;;5037283;28;19940;-75
2022/07/31 06:03:21;;;;;;;;;;;19.10;99.90;;;;;;5050669;28;19939;-75
2022/07/31 06:05:46;;;;;;;;;;;19.10;99.90;;;;;;5044182;28;20045;-74
2022/07/31 06:08:12;;;;;;;;;;;19.10;99.90;;;;;;5036313;28;20722;-76
2022/07/31 06:10:38;;;;;;;;;;;19.20;99.90;;;;;;5033836;28;19917;-74
2022/07/31 06:13:04;;;;;;;;;;;19.20;99.90;;;;;;5036479;28;19909;-74
2022/07/31 06:15:29;;;;;;;;;;;19.20;99.90;;;;;;5035142;28;20259;-78
2022/07/31 06:17:55;;;;;;;;;;;19.30;99.90;;;;;;5036490;28;20020;-73
2022/07/31 06:20:20;;;;;;;;;;;19.30;99.90;;;;;;5037216;28;19917;-75
2022/07/31 06:22:46;;;;;;;;;;;19.30;99.90;;;;;;5032882;28;19913;-74
2022/07/31 06:25:11;;;;;;;;;;;19.30;99.90;;;;;;5036577;28;19917;-75
2022/07/31 06:27:37;;;;;;;;;;;19.40;99.90;;;;;;5035243;28;19944;-72
2022/07/31 06:30:04;;;;;;;;;;;19.30;99.90;;;;;;5035056;28;19920;-78
2022/07/31 06:32:30;;;;;;;;;;;19.40;99.90;;;;;;5054893;28;19979;-74
2022/07/31 06:34:56;;;;;;;;;;;19.40;99.90;;;;;;5041861;28;19923;-72
2022/07/31 06:37:21;;;;;;;;;;;19.40;99.90;;;;;;5040608;28;19913;-75
2022/07/31 06:39:47;;;;;;;;;;;19.50;99.90;;;;;;5036382;28;19921;-74
2022/07/31 06:42:17;;;;;;;;;;;19.50;99.90;;;;;;5042507;28;19981;-75
2022/07/31 06:44:42;;;;;;;;;;;19.60;99.90;;;;;;5050153;28;19913;-76
2022/07/31 06:47:08;;;;;;;;;;;19.70;99.90;;;;;;5050634;28;19909;-74
2022/07/31 06:49:33;;;;;;;;;;;19.80;99.90;;;;;;5051451;28;19909;-75
2022/07/31 06:51:59;;;;;;;;;;;19.80;99.90;;;;;;5049235;28;19909;-77
2022/07/31 06:54:25;;;;;;;;;;;19.90;99.90;;;;;;5052091;28;19921;-75
2022/07/31 06:56:51;;;;;;;;;;;20.00;99.90;;;;;;5031674;28;19975;-74
2022/07/31 06:59:16;;;;;;;;;;;20.00;99.90;;;;;;5034514;28;19971;-77
2022/07/31 07:01:42;;;;;;;;;;;20.00;99.90;;;;;;5050819;28;19944;-79
2022/07/31 07:04:08;;;;;;;;;;;20.00;99.90;;;;;;5036923;28;19909;-77
2022/07/31 07:06:33;;;;;;;;;;;20.00;99.90;;;;;;5034524;28;20205;-78
2022/07/31 07:08:59;;;;;;;;;;;20.00;99.90;;;;;;5036707;28;20048;-74
2022/07/31 07:11:24;;;;;;;;;;;20.00;99.90;;;;;;5037206;28;20312;-73
2022/07/31 07:13:50;;;;;;;;;;;20.00;99.90;;;;;;5035784;28;19917;-73
2022/07/31 07:16:15;;;;;;;;;;;20.00;99.90;;;;;;5037572;28;19935;-75
2022/07/31 07:18:44;;;;;;;;;;;20.00;99.90;;;;;;5038319;28;19909;-75
2022/07/31 07:21:10;;;;;;;;;;;20.00;99.90;;;;;;5040531;28;19917;-77
2022/07/31 07:23:35;;;;;;;;;;;20.00;99.90;;;;;;5032301;28;19963;-73
2022/07/31 07:26:01;;;;;;;;;;;20.00;99.90;;;;;;5038337;28;19999;-75
2022/07/31 07:28:26;;;;;;;;;;;20.00;99.90;;;;;;5039615;28;19955;-75
2022/07/31 07:30:52;;;;;;;;;;;20.00;99.90;;;;;;5038733;28;19913;-76
2022/07/31 07:33:17;;;;;;;;;;;20.00;99.90;;;;;;5036341;28;20296;-76
2022/07/31 07:35:43;;;;;;;;;;;20.10;99.90;;;;;;5040620;28;19971;-74
2022/07/31 07:38:08;;;;;;;;;;;20.20;99.90;;;;;;5040268;28;20334;-75
2022/07/31 07:40:34;;;;;;;;;;;20.20;99.90;;;;;;5039582;28;19913;-78
2022/07/31 07:43:00;;;;;;;;;;;20.20;99.90;;;;;;5038459;28;19967;-76
2022/07/31 07:45:25;;;;;;;;;;;20.20;99.90;;;;;;5043963;28;19913;-74
2022/07/31 07:47:51;;;;;;;;;;;20.30;99.90;;;;;;5046593;28;19915;-77
2022/07/31 07:50:16;;;;;;;;;;;20.30;99.90;;;;;;5036584;28;19925;-73
2022/07/31 07:52:42;;;;;;;;;;;20.20;99.90;;;;;;5033666;28;19963;-73
2022/07/31 07:55:08;;;;;;;;;;;20.20;99.90;;;;;;5032729;28;19917;-73
2022/07/31 07:57:34;;;;;;;;;;;20.30;99.90;;;;;;5034123;28;20007;-74
2022/07/31 08:00:00;;;;;;;;;;;20.30;99.90;;;;;;5034867;28;19917;-75
2022/07/31 08:02:25;;;;;;;;;;;20.30;99.90;;;;;;5039445;28;20011;-75
2022/07/31 08:04:51;;;;;;;;;;;20.30;99.90;;;;;;5042730;28;20356;-73
2022/07/31 08:07:25;;;;;;;;;;;20.20;99.90;;;;;;5045804;28;19916;-74
2022/07/31 08:09:50;;;;;;;;;;;20.30;99.90;;;;;;5045778;28;19970;-72
2022/07/31 08:12:16;;;;;;;;;;;20.20;99.90;;;;;;5048371;28;20007;-73
2022/07/31 08:14:41;;;;;;;;;;;20.20;99.90;;;;;;5044397;28;19921;-73
2022/07/31 08:17:10;;;;;;;;;;;20.20;99.90;;;;;;5033090;28;19928;-74
2022/07/31 08:19:35;;;;;;;;;;;20.10;99.90;;;;;;5043792;28;19913;-74
2022/07/31 08:22:01;;;;;;;;;;;20.20;99.90;;;;;;5039478;28;20019;-74
2022/07/31 08:24:26;;;;;;;;;;;20.20;99.90;;;;;;5034776;28;19967;-74
2022/07/31 08:29:36;;;;;;;;;;;20.30;99.90;;;;;;5045042;28;19928;-74
2022/07/31 08:32:01;;;;;;;;;;;20.30;99.90;;;;;;5041076;28;19917;-75
2022/07/31 08:34:27;;;;;;;;;;;20.40;99.90;;;;;;5033747;28;19925;-74
2022/07/31 08:36:52;;;;;;;;;;;20.40;99.90;;;;;;5033748;28;19964;-73
2022/07/31 08:39:18;;;;;;;;;;;20.40;99.90;;;;;;5037434;28;20003;-74
2022/07/31 08:41:44;;;;;;;;;;;20.40;99.90;;;;;;5035840;28;20031;-75
2022/07/31 08:44:10;;;;;;;;;;;20.50;99.90;;;;;;5049062;28;19917;-74
2022/07/31 08:46:37;;;;;;;;;;;20.40;99.90;;;;;;5050484;28;19987;-74
2022/07/31 08:49:03;;;;;;;;;;;20.40;99.90;;;;;;5054236;28;19912;-73
2022/07/31 08:51:38;;;;;;;;;;;20.40;99.90;;;;;;5047048;28;19959;-75
2022/07/31 08:54:05;;;;;;;;;;;20.50;99.90;;;;;;5041766;28;19924;-72
2022/07/31 08:56:32;;;;;;;;;;;20.50;99.90;;;;;;5042563;28;19921;-75
2022/07/31 08:58:58;;;;;;;;;;;20.60;99.90;;;;;;5036023;28;19986;-74
2022/07/31 09:01:24;;;;;;;;;;;20.50;99.90;;;;;;5041130;28;20300;-72
2022/07/31 09:03:49;;;;;;;;;;;20.50;99.90;;;;;;5045474;28;20296;-74
2022/07/31 09:06:15;;;;;;;;;;;20.40;99.90;;;;;;5039886;28;20320;-73
2022/07/31 09:08:40;;;;;;;;;;;20.40;99.90;;;;;;5042605;28;20323;-74
2022/07/31 09:11:06;;;;;;;;;;;20.40;99.90;;;;;;5038222;28;19913;-74
2022/07/31 09:13:33;;;;;;;;;;;20.40;99.90;;;;;;5034474;28;19917;-75
2022/07/31 09:15:59;;;;;;;;;;;20.30;99.90;;;;;;5033597;28;20317;-73
2022/07/31 09:18:25;;;;;;;;;;;20.30;99.90;;;;;;5032008;28;20052;-74
2022/07/31 09:20:55;;;;;;;;;;;20.20;99.90;;;;;;5033810;28;19970;-74
2022/07/31 09:23:21;;;;;;;;;;;20.20;99.90;;;;;;5032239;28;19921;-72
2022/07/31 09:25:50;;;;;;;;;;;20.30;99.90;;;;;;5033237;28;19917;-72
2022/07/31 09:28:15;;;;;;;;;;;20.30;99.90;;;;;;5033146;28;19913;-72
2022/07/31 09:30:41;;;;;;;;;;;20.40;99.90;;;;;;5032386;28;19913;-73
2022/07/31 09:33:17;;;;;;;;;;;20.40;99.90;;;;;;5033037;28;19917;-72
2022/07/31 09:35:47;;;;;;;;;;;20.40;99.90;;;;;;5032272;28;21924;-73
2022/07/31 09:38:12;;;;;;;;;;;20.50;99.90;;;;;;5033585;28;20295;-72
2022/07/31 09:40:42;;;;;;;;;;;20.60;99.90;;;;;;5033661;28;19913;-73
2022/07/31 09:43:23;;;;;;;;;;;20.60;99.90;;;;;;5031967;28;19975;-73
2022/07/31 09:45:56;;;;;;;;;;;20.60;99.90;;;;;;5033564;28;19913;-74
2022/07/31 09:48:22;;;;;;;;;;;20.70;99.90;;;;;;5032830;28;19925;-74
2022/07/31 09:50:55;;;;;;;;;;;20.60;99.90;;;;;;5033053;28;19990;-73
2022/07/31 09:53:21;;;;;;;;;;;20.50;99.90;;;;;;5033276;28;19925;-73
2022/07/31 09:55:53;;;;;;;;;;;20.40;99.90;;;;;;5032865;28;19928;-73
2022/07/31 09:58:20;;;;;;;;;;;20.40;99.90;;;;;;5033045;28;19929;-74
2022/07/31 10:00:50;;;;;;;;;;;20.40;99.90;;;;;;5033478;28;19921;-74
2022/07/31 10:03:17;;;;;;;;;;;20.40;99.90;;;;;;5033036;28;19932;-73
2022/07/31 10:05:44;;;;;;;;;;;20.30;99.90;;;;;;5033976;28;19921;-73
2022/07/31 10:08:10;;;;;;;;;;;20.40;99.90;;;;;;5035648;28;20308;-72
2022/07/31 10:10:36;;;;;;;;;;;20.30;99.90;;;;;;5034974;28;19966;-73
2022/07/31 10:13:04;;;;;;;;;;;20.30;99.90;;;;;;5031910;28;19917;-74
2022/07/31 10:15:31;;;;;;;;;;;20.30;99.90;;;;;;5032243;28;19921;-71
2022/07/31 10:17:57;;;;;;;;;;;20.30;99.90;;;;;;5032373;28;19971;-73
2022/07/31 10:20:24;;;;;;;;;;;20.40;99.90;;;;;;5030260;28;19921;-74
2022/07/31 10:22:56;;;;;;;;;;;20.40;99.90;;;;;;5030747;28;19921;-71
2022/07/31 10:25:26;;;;;;;;;;;20.30;99.90;;;;;;5026788;28;20201;-72
2022/07/31 10:27:52;;;;;;;;;;;20.30;99.90;;;;;;5027682;28;19936;-72
2022/07/31 10:30:18;;;;;;;;;;;20.30;99.90;;;;;;5031846;28;19967;-72
2022/07/31 10:32:45;;;;;;;;;;;20.20;99.90;;;;;;5031293;28;19913;-72
2022/07/31 10:35:10;;;;;;;;;;;20.30;99.90;;;;;;5030587;28;20495;-74
2022/07/31 10:37:42;;;;;;;;;;;20.30;99.90;;;;;;5031440;28;19913;-72
2022/07/31 10:40:31;;;;;;;;;;;20.30;99.90;;;;;;5033551;28;20042;-71
2022/07/31 10:43:12;;;;;;;;;;;20.30;99.90;;;;;;5030507;28;19917;-72
2022/07/31 10:45:51;;;;;;;;;;;20.20;99.90;;;;;;5036014;28;19913;-73
2022/07/31 10:48:17;;;;;;;;;;;20.20;99.90;;;;;;5039796;28;19939;-73
2022/07/31 10:50:43;;;;;;;;;;;20.20;99.90;;;;;;5052068;28;20012;-72
2022/07/31 10:53:10;;;;;;;;;;;20.20;99.90;;;;;;5042888;28;19915;-72
2022/07/31 10:55:35;;;;;;;;;;;20.20;99.90;;;;;;5047867;28;20313;-72
2022/07/31 10:58:18;;;;;;;;;;;20.30;99.90;;;;;;5042674;28;19917;-72
2022/07/31 11:00:44;;;;;;;;;;;20.20;99.90;;;;;;5051065;28;19917;-73
2022/07/31 11:03:13;;;;;;;;;;;20.20;99.90;;;;;;5047505;28;19917;-73
2022/07/31 11:05:39;;;;;;;;;;;20.20;99.90;;;;;;5048285;28;20008;-73
2022/07/31 11:08:06;;;;;;;;;;;20.20;99.90;;;;;;5050419;28;20003;-74
2022/07/31 11:10:33;;;;;;;;;;;20.20;99.90;;;;;;5037414;28;19928;-72
2022/07/31 11:13:03;;;;;;;;;;;20.10;99.90;;;;;;5028480;28;20350;-73
2022/07/31 11:15:28;;;;;;;;;;;20.10;99.90;;;;;;5047336;28;20227;-73
2022/07/31 11:17:54;;;;;;;;;;;20.10;99.90;;;;;;5047512;28;19928;-73
2022/07/31 11:20:20;;;;;;;;;;;20.00;99.90;;;;;;5046500;28;19916;-73
2022/07/31 11:22:56;;;;;;;;;;;19.90;99.90;;;;;;5047612;28;19932;-73
2022/07/31 11:25:22;;;;;;;;;;;19.90;99.90;;;;;;5047013;28;19955;-72
2022/07/31 11:27:48;;;;;;;;;;;19.90;99.90;;;;;;5047639;28;19921;-72
2022/07/31 11:30:13;;;;;;;;;;;19.90;99.90;;;;;;5045541;28;19925;-73
2022/07/31 11:32:39;;;;;;;;;;;19.90;99.90;;;;;;5032114;28;19921;-73
2022/07/31 11:35:05;;;;;;;;;;;19.90;99.90;;;;;;5030279;28;19966;-73
2022/07/31 11:37:31;;;;;;;;;;;19.90;99.90;;;;;;5036009;28;19996;-73
2022/07/31 11:39:57;;;;;;;;;;;20.00;99.90;;;;;;5036702;28;19917;-73
2022/07/31 11:42:23;;;;;;;;;;;20.00;99.90;;;;;;5033415;28;19913;-73
2022/07/31 11:44:49;;;;;;;;;;;20.00;99.90;;;;;;5037071;28;20308;-73
2022/07/31 11:47:15;;;;;;;;;;;20.00;99.90;;;;;;5036134;28;19920;-72
2022/07/31 11:49:40;;;;;;;;;;;20.10;99.90;;;;;;5035544;28;19908;-72
2022/07/31 11:52:07;;;;;;;;;;;20.20;99.90;;;;;;5035302;28;19919;-73
2022/07/31 11:54:33;;;;;;;;;;;20.20;99.90;;;;;;5035860;28;20023;-73
2022/07/31 11:56:59;;;;;;;;;;;20.40;99.90;;;;;;5040952;28;20000;-73
2022/07/31 11:59:29;;;;;;;;;;;20.40;99.90;;;;;;5032611;28;20304;-75
2022/07/31 12:02:01;;;;;;;;;;;20.50;99.90;;;;;;5033828;28;19916;-74
2022/07/31 12:04:27;;;;;;;;;;;20.50;99.90;;;;;;5037905;28;19916;-74
2022/07/31 12:06:56;;;;;;;;;;;20.50;99.90;;;;;;5035866;28;19919;-72
2022/07/31 12:09:21;;;;;;;;;;;20.70;99.90;;;;;;5038978;28;19921;-74
2022/07/31 12:11:47;;;;;;;;;;;20.80;99.90;;;;;;5045992;28;19912;-74
2022/07/31 12:14:13;;;;;;;;;;;20.90;99.90;;;;;;5043477;28;19917;-74
2022/07/31 12:16:40;;;;;;;;;;;20.90;99.90;;;;;;5043282;28;19928;-73
2022/07/31 12:19:06;;;;;;;;;;;21.10;99.90;;;;;;5048033;28;19945;-75
2022/07/31 12:21:35;;;;;;;;;;;21.30;99.90;;;;;;5032507;28;20597;-73
2022/07/31 12:24:01;;;;;;;;;;;21.40;99.90;;;;;;5040666;28;20332;-75
2022/07/31 12:26:31;;;;;;;;;;;21.40;99.90;;;;;;5037865;28;20004;-74
2022/07/31 12:29:05;;;;;;;;;;;21.30;99.90;;;;;;5039682;28;19943;-74
2022/07/31 12:31:42;;;;;;;;;;;21.30;99.90;;;;;;5042845;28;19914;-74
2022/07/31 12:34:08;;;;;;;;;;;21.20;99.90;;;;;;5050818;28;19909;-73
2022/07/31 12:36:33;;;;;;;;;;;21.10;99.90;;;;;;5032712;28;19928;-72
2022/07/31 12:39:00;;;;;;;;;;;21.10;99.90;;;;;;5031623;28;19975;-74
2022/07/31 12:41:26;;;;;;;;;;;21.10;99.90;;;;;;5030581;28;19925;-74
2022/07/31 12:43:52;;;;;;;;;;;21.10;99.90;;;;;;5029130;28;19960;-72
2022/07/31 12:46:21;;;;;;;;;;;21.10;99.90;;;;;;5024620;28;19945;-75
2022/07/31 12:48:47;;;;;;;;;;;21.10;99.90;;;;;;5030174;28;19921;-74
2022/07/31 12:51:12;;;;;;;;;;;21.10;99.90;;;;;;5029856;28;19921;-75
2022/07/31 12:53:38;;;;;;;;;;;21.10;99.90;;;;;;5028151;28;21827;-75
2022/07/31 12:56:04;;;;;;;;;;;21.10;99.90;;;;;;5030151;28;20401;-74
2022/07/31 12:58:29;;;;;;;;;;;21.10;99.90;;;;;;5031023;28;19971;-72
2022/07/31 13:00:55;;;;;;;;;;;21.00;99.90;;;;;;5031259;28;19917;-73
2022/07/31 13:03:22;;;;;;;;;;;20.80;99.90;;;;;;5033058;28;19991;-73
2022/07/31 13:05:48;;;;;;;;;;;20.70;99.90;;;;;;5031777;28;19921;-73
2022/07/31 13:08:13;;;;;;;;;;;20.70;99.90;;;;;;5030538;28;19979;-73
2022/07/31 13:10:39;;;;;;;;;;;20.60;99.90;;;;;;5032293;28;19917;-74
2022/07/31 13:13:04;;;;;;;;;;;20.60;99.90;;;;;;5037135;28;19917;-72
2022/07/31 13:15:30;;;;;;;;;;;20.50;99.90;;;;;;5029161;28;19932;-72
2022/07/31 13:17:56;;;;;;;;;;;20.50;99.90;;;;;;5036783;28;20262;-71
2022/07/31 13:20:22;;;;;;;;;;;20.40;99.90;;;;;;5036042;28;19917;-72
2022/07/31 13:22:47;;;;;;;;;;;20.40;99.90;;;;;;5036090;28;19944;-73
2022/07/31 13:25:13;;;;;;;;;;;20.40;99.90;;;;;;5036100;28;19923;-72
2022/07/31 13:27:39;;;;;;;;;;;20.40;99.90;;;;;;5034786;28;19945;-71
2022/07/31 13:30:05;;;;;;;;;;;20.30;99.90;;;;;;5045184;28;20334;-72
2022/07/31 13:32:31;;;;;;;;;;;20.20;99.90;;;;;;5047503;28;19917;-70
2022/07/31 13:34:57;;;;;;;;;;;20.10;99.90;;;;;;5046194;28;20011;-70
2022/07/31 13:37:23;;;;;;;;;;;20.10;99.90;;;;;;5049007;28;19920;-70
2022/07/31 13:39:48;;;;;;;;;;;20.20;99.90;;;;;;5048623;28;19913;-74
2022/07/31 13:42:14;;;;;;;;;;;20.20;99.90;;;;;;5048579;28;19917;-70
2022/07/31 13:44:40;;;;;;;;;;;20.20;99.90;;;;;;5038419;28;20457;-72
2022/07/31 13:47:05;;;;;;;;;;;20.20;99.90;;;;;;5042938;28;20320;-72
2022/07/31 13:49:31;;;;;;;;;;;20.30;99.90;;;;;;5051702;28;20303;-72
2022/07/31 13:51:58;;;;;;;;;;;20.30;99.90;;;;;;5052113;28;19919;-71
2022/07/31 13:54:23;;;;;;;;;;;20.40;99.90;;;;;;5047825;28;20315;-71
2022/07/31 13:56:49;;;;;;;;;;;20.50;99.90;;;;;;5049268;28;19915;-74
2022/07/31 13:59:16;;;;;;;;;;;20.50;99.90;;;;;;5050702;28;19913;-72
2022/07/31 14:01:41;;;;;;;;;;;20.50;99.90;;;;;;5053819;28;19909;-71
2022/07/31 14:04:07;;;;;;;;;;;20.50;99.90;;;;;;5047103;28;19917;-72
2022/07/31 14:06:33;;;;;;;;;;;20.50;99.90;;;;;;5051994;28;19919;-72
2022/07/31 14:08:59;;;;;;;;;;;20.40;99.90;;;;;;5048824;28;20271;-72
2022/07/31 14:11:24;;;;;;;;;;;20.30;99.90;;;;;;5053610;28;19908;-74
2022/07/31 14:13:50;;;;;;;;;;;20.30;99.90;;;;;;5053374;28;19944;-71
2022/07/31 14:16:16;;;;;;;;;;;20.30;99.90;;;;;;5049268;28;19913;-73